PAJN/JNU METAR and TAF weather

Enter ICAO airport designator
Station Type Date Time Source
PAJN METAR 2019/12/07 06:53 UTC NOAA

PAJN 070653Z 00000KT 10SM FEW022 BKN037 BKN050 01/00 A2986 RMK AO2 SLP111 OCNL BINOVC T00060000


Station Type Date Time Source
PAJN Decoded METAR 2019/12/07 06:53 UTC NOAA

JUNEAU INTERNATIONAL AIRPORT, AK, United States (PAJN) 58-21N 134-34W 8M
Dec 07, 2019 - 01:53 AM EST / 2019.12.07 0653 UTC
Wind: Calm:0
Visibility: 10 mile(s):0
Sky conditions: mostly cloudy
Temperature: 33.1 F (0.6 C)
Dew Point: 32.0 F (0.0 C)
Relative Humidity: 95%
Pressure (altimeter): 29.86 in. Hg (1011 hPa)
ob: PAJN 070653Z 00000KT 10SM FEW022 BKN037 BKN050 01/00 A2986 RMK AO2 SLP111 OCNL BINOVC T00060000
cycle: 7

Station Type Date Time Source
PAJN TAF 2019/12/07 06:40 UTC NOAA

TAF PAJN 070538Z 0706/0806 VRB03KT P6SM VCSH FEW007 BKN050 OVC120
FM070900 VRB03KT P6SM BCFG SCT007 BKN030
FM071200 10005KT 6SM -RASN BR SCT015 OVC025
FM072300 10005KT P6SM -RA SCT010 OVC015

Example: see airport list